Time;durP1;ratioP1;P1;durP2;ratioP2;P2;SDS_P1;SDS_P2;PMS_P1;PMS_P2;Temp;Humidity;BMP_temperature;BMP_pressure;BME280_temperature;BME280_humidity;BME280_pressure;Samples;Min_cycle;Max_cycle;Signal;HPM_P1;HPM_P2
2020/12/13 00:00:38;;;;;;;;;;;;;;;0.09;91.89;101420.14;1881266;75;20133;-38
2020/12/13 00:03:07;;;;;;;;;;;;;;;0.07;91.82;101419.60;1867481;75;20420;-39
2020/12/13 00:05:34;;;;;;;;;;;;;;;0.04;91.76;101421.67;1867123;77;20439;-39
2020/12/13 00:08:02;;;;;;;;;;;;;;;0.02;91.66;101429.75;1868460;75;20173;-41
2020/12/13 00:10:31;;;;;;;;;;;;;;;-0.01;91.63;101428.37;1868526;75;20120;-42
2020/12/13 00:12:59;;;;;;;;;;;;;;;-0.03;91.55;101431.28;1867080;77;20414;-37
2020/12/13 00:15:26;;;;;;;;;;;;;;;-0.07;91.49;101432.89;1867450;77;20402;-40
2020/12/13 00:17:54;;;;;;;;;;;;;;;-0.11;91.41;101427.13;1867495;76;20264;-42
2020/12/13 00:20:24;;;;;;;;;;;;;;;-0.13;91.36;101440.80;1867126;77;20184;-40
2020/12/13 00:22:52;;;;;;;;;;;;;;;-0.15;91.30;101435.98;1897679;75;20437;-42
2020/12/13 00:25:19;;;;;;;;;;;;;;;-0.18;91.26;101438.02;1899328;75;20125;-43
2020/12/13 00:27:47;;;;;;;;;;;;;;;-0.20;91.24;101425.51;1867286;77;20266;-43
2020/12/13 00:30:15;;;;;;;;;;;;;;;-0.22;91.17;101424.97;1867658;75;20180;-40
2020/12/13 00:32:42;;;;;;;;;;;;;;;-0.25;91.14;101430.87;1867213;77;20178;-39
2020/12/13 00:35:10;;;;;;;;;;;;;;;-0.26;91.15;101425.24;1867500;77;20123;-40
2020/12/13 00:37:38;;;;;;;;;;;;;;;-0.28;91.17;101433.34;1867257;77;20159;-38
2020/12/13 00:40:06;;;;;;;;;;;;;;;-0.30;91.19;101435.38;1870885;75;20209;-38
2020/12/13 00:42:33;;;;;;;;;;;;;;;-0.32;91.21;101431.45;1868992;75;20120;-42
2020/12/13 00:45:01;;;;;;;;;;;;;;;-0.33;91.25;101431.41;1867358;76;20213;-41
2020/12/13 00:47:29;;;;;;;;;;;;;;;-0.36;91.25;101428.70;1867946;75;20245;-41
2020/12/13 00:49:56;;;;;;;;;;;;;;;-0.38;91.25;101431.62;1867347;77;20280;-41
2020/12/13 00:52:24;;;;;;;;;;;;;;;-0.40;91.25;101434.16;1866963;77;20172;-37
2020/12/13 00:54:54;;;;;;;;;;;;;;;-0.41;91.22;101428.53;1867456;77;20174;-36
2020/12/13 00:57:24;;;;;;;;;;;;;;;-0.44;91.14;101434.84;1867086;77;20130;-39
2020/12/13 00:59:52;;;;;;;;;;;;;;;-0.47;91.09;101431.75;1867264;77;20166;-42
2020/12/13 01:02:20;;;;;;;;;;;;;;;-0.49;90.99;101417.05;1867076;77;20986;-38
2020/12/13 01:04:49;;;;;;;;;;;;;;;-0.53;90.86;101421.62;1867406;77;20471;-39
2020/12/13 01:07:16;;;;;;;;;;;;;;;-0.56;90.81;101421.08;1867315;77;20216;-40
2020/12/13 01:09:44;;;;;;;;;;;;;;;-0.58;90.67;101418.84;1895232;75;20275;-39
2020/12/13 01:12:12;;;;;;;;;;;;;;;-0.61;90.60;101418.73;1868299;75;20180;-38
2020/12/13 01:14:40;;;;;;;;;;;;;;;-0.62;90.51;101419.55;1902529;75;20128;-41
2020/12/13 01:17:08;;;;;;;;;;;;;;;-0.64;90.38;101425.03;1902384;75;20168;-41
2020/12/13 01:19:36;;;;;;;;;;;;;;;-0.65;90.23;101424.97;1902579;75;20167;-40
2020/12/13 01:22:06;;;;;;;;;;;;;;;-0.67;89.98;101424.05;1870275;76;20261;-37
2020/12/13 01:24:33;;;;;;;;;;;;;;;-0.71;89.78;101419.17;1870731;77;20153;-40
2020/12/13 01:27:01;;;;;;;;;;;;;;;-0.73;89.52;101423.80;1870542;77;20186;-39
2020/12/13 01:29:29;;;;;;;;;;;;;;;-0.76;89.23;101420.69;1880048;75;20223;-37
2020/12/13 01:31:57;;;;;;;;;;;;;;;-0.78;88.99;101414.59;1902598;75;20287;-38
2020/12/13 01:34:24;;;;;;;;;;;;;;;-0.80;88.80;101411.09;1902150;75;20159;-39
2020/12/13 01:36:52;;;;;;;;;;;;;;;-0.83;88.61;101410.55;1902188;75;20279;-39
2020/12/13 01:39:21;;;;;;;;;;;;;;;-0.86;88.46;101416.87;1902187;75;20124;-40
2020/12/13 01:41:58;;;;;;;;;;;;;;;-0.88;88.38;101414.64;1902413;75;20397;-40
2020/12/13 01:44:31;;;;;;;;;;;;;;;-0.88;88.35;101419.79;1902293;75;20281;-38
2020/12/13 01:46:59;;;;;;;;;;;;;;;-0.92;88.10;101415.75;1902138;75;20144;-38
2020/12/13 01:49:31;;;;;;;;;;;;;;;-0.97;87.93;101408.23;1902552;75;20467;-41
2020/12/13 01:54:27;;;;;;;;;;;;;;;-1.05;87.46;101414.78;1902472;75;20405;-47
2020/12/13 01:56:56;;;;;;;;;;;;;;;-1.10;87.39;101404.27;1902294;75;20457;-40
2020/12/13 01:59:27;;;;;;;;;;;;;;;-1.12;87.33;101417.91;1902488;75;20224;-36
2020/12/13 02:02:00;;;;;;;;;;;;;;;-1.16;87.31;101421.14;1902280;75;20433;-39
2020/12/13 02:04:28;;;;;;;;;;;;;;;-1.21;87.18;101420.56;1902414;75;20382;-42
2020/12/13 02:06:56;;;;;;;;;;;;;;;-1.25;87.01;101419.94;1902188;75;20164;-38
2020/12/13 02:09:24;;;;;;;;;;;;;;;-1.29;86.86;101423.20;1902554;75;20207;-39
2020/12/13 02:11:53;;;;;;;;;;;;;;;-1.33;86.76;101426.87;1902456;75;20129;-40
2020/12/13 02:14:20;;;;;;;;;;;;;;;-1.36;86.69;101429.30;1902505;75;20136;-38
2020/12/13 02:16:50;;;;;;;;;;;;;;;-1.38;86.61;101432.24;1902372;75;20136;-39
2020/12/13 02:19:18;;;;;;;;;;;;;;;-1.42;86.64;101434.19;1902341;75;20386;-39
2020/12/13 02:21:47;;;;;;;;;;;;;;;-1.45;86.65;101430.22;1902494;75;20262;-40
2020/12/13 02:26:48;;;;;;;;;;;;;;;-1.46;86.59;101422.91;1921794;74;20171;-40
2020/12/13 02:29:15;;;;;;;;;;;;;;;-1.53;86.52;101429.87;1895493;75;20135;-39
2020/12/13 02:31:43;;;;;;;;;;;;;;;-1.54;86.49;101428.52;1903195;75;20120;-39
2020/12/13 02:34:11;;;;;;;;;;;;;;;-1.56;86.46;101419.84;1903171;75;20595;-39
2020/12/13 02:36:41;;;;;;;;;;;;;;;-1.59;86.39;101429.61;1903229;75;20132;-40
2020/12/13 02:39:10;;;;;;;;;;;;;;;-1.62;86.41;101431.62;1903045;75;20449;-39
2020/12/13 02:41:37;;;;;;;;;;;;;;;-1.62;86.49;101430.34;1903084;75;20144;-39
2020/12/13 02:44:05;;;;;;;;;;;;;;;-1.63;86.46;101427.70;1902908;75;20132;-39
2020/12/13 02:46:33;;;;;;;;;;;;;;;-1.63;86.54;101422.16;1903118;75;20273;-39
2020/12/13 02:49:01;;;;;;;;;;;;;;;-1.64;86.52;101423.36;1903004;75;20250;-37
2020/12/13 02:51:29;;;;;;;;;;;;;;;-1.66;86.55;101419.47;1903173;75;20132;-40
2020/12/13 02:53:56;;;;;;;;;;;;;;;-1.66;86.66;101414.73;1903235;75;20191;-38
2020/12/13 02:56:23;;;;;;;;;;;;;;;-1.68;86.74;101417.23;1903111;75;20417;-38
2020/12/13 02:58:52;;;;;;;;;;;;;;;-1.69;86.80;101394.90;1888337;75;20182;-39
2020/12/13 03:01:21;;;;;;;;;;;;;;;-1.69;86.85;101419.31;1867889;77;20138;-38
2020/12/13 03:03:49;;;;;;;;;;;;;;;-1.70;86.97;101411.12;1868138;77;20131;-38
2020/12/13 03:06:17;;;;;;;;;;;;;;;-1.71;87.03;101399.08;1867814;77;20213;-36
2020/12/13 03:08:45;;;;;;;;;;;;;;;-1.71;87.12;101409.80;1867998;77;20825;-39
2020/12/13 03:11:12;;;;;;;;;;;;;;;-1.72;87.24;101419.20;1868097;75;20186;-39
2020/12/13 03:13:42;;;;;;;;;;;;;;;-1.73;87.37;101412.70;1821500;77;20182;-38
2020/12/13 03:16:11;;;;;;;;;;;;;;;-1.74;87.49;101400.66;1840739;75;20140;-39
2020/12/13 03:18:39;;;;;;;;;;;;;;;-1.75;87.63;101395.92;1841466;75;20120;-39
2020/12/13 03:21:07;;;;;;;;;;;;;;;-1.75;87.77;101389.90;1903056;75;20175;-38
2020/12/13 03:23:34;;;;;;;;;;;;;;;-1.76;87.91;101398.41;1903125;75;20128;-38
2020/12/13 03:26:02;;;;;;;;;;;;;;;-1.78;88.06;101404.80;1902900;75;20461;-38
2020/12/13 03:28:30;;;;;;;;;;;;;;;-1.78;88.22;101412.51;1903261;75;20191;-39
2020/12/13 03:30:57;;;;;;;;;;;;;;;-1.77;88.36;101419.38;1903055;75;20176;-37
2020/12/13 03:33:26;;;;;;;;;;;;;;;-1.77;88.50;101404.39;1903174;75;20453;-38
2020/12/13 03:35:54;;;;;;;;;;;;;;;-1.78;88.64;101403.91;1902961;75;20140;-38
2020/12/13 03:38:21;;;;;;;;;;;;;;;-1.79;88.77;101407.30;1902335;75;20167;-38
2020/12/13 03:40:50;;;;;;;;;;;;;;;-1.79;88.91;101394.44;1902344;75;20470;-41
2020/12/13 03:43:17;;;;;;;;;;;;;;;-1.81;89.07;101412.77;1896947;75;20151;-40
2020/12/13 03:45:45;;;;;;;;;;;;;;;-1.81;89.21;101414.92;1902461;75;20136;-39
2020/12/13 03:48:13;;;;;;;;;;;;;;;-1.81;89.33;101415.33;1902551;75;20461;-36
2020/12/13 03:50:41;;;;;;;;;;;;;;;-1.82;89.47;101414.84;1902366;75;20129;-39
2020/12/13 03:53:12;;;;;;;;;;;;;;;-1.82;89.59;101407.14;1902324;75;20136;-40
2020/12/13 03:55:41;;;;;;;;;;;;;;;-1.82;89.73;101423.84;1902623;75;20136;-39
2020/12/13 03:58:10;;;;;;;;;;;;;;;-1.82;89.85;101414.84;1902148;75;20136;-37
2020/12/13 04:00:38;;;;;;;;;;;;;;;-1.82;89.99;101417.42;1902271;75;20129;-38
2020/12/13 04:03:06;;;;;;;;;;;;;;;-1.82;90.13;101424.73;1902423;75;20140;-39
2020/12/13 04:05:33;;;;;;;;;;;;;;;-1.82;90.26;101421.27;1902427;75;20206;-42
2020/12/13 04:08:01;;;;;;;;;;;;;;;-1.82;90.36;101428.58;1902403;75;20152;-40
2020/12/13 04:10:28;;;;;;;;;;;;;;;-1.82;90.49;101426.02;1902399;75;20406;-40
2020/12/13 04:12:56;;;;;;;;;;;;;;;-1.81;90.58;101432.03;1902358;75;20232;-36
2020/12/13 04:15:23;;;;;;;;;;;;;;;-1.81;90.67;101431.62;1902484;75;20375;-38
2020/12/13 04:17:52;;;;;;;;;;;;;;;-1.80;90.74;101431.23;1902690;75;20175;-38
2020/12/13 04:20:20;;;;;;;;;;;;;;;-1.79;90.83;101438.13;1902454;75;20132;-41
2020/12/13 04:22:48;;;;;;;;;;;;;;;-1.80;90.87;101435.97;1902470;75;20129;-40
2020/12/13 04:25:15;;;;;;;;;;;;;;;-1.79;90.97;101435.56;1902145;75;20310;-41
2020/12/13 04:27:43;;;;;;;;;;;;;;;-1.79;91.04;101432.99;1902383;75;20243;-39
2020/12/13 04:30:11;;;;;;;;;;;;;;;-1.79;91.09;101440.70;1902389;75;20231;-39
2020/12/13 04:32:39;;;;;;;;;;;;;;;-1.81;91.13;101431.62;1902549;75;20227;-37
2020/12/13 04:35:07;;;;;;;;;;;;;;;-1.82;91.16;101436.70;1902493;75;20171;-39
2020/12/13 04:37:35;;;;;;;;;;;;;;;-1.83;91.18;101435.81;1902499;75;20120;-39
2020/12/13 04:40:05;;;;;;;;;;;;;;;-1.83;91.21;101440.07;1902453;75;20136;-38
2020/12/13 04:42:36;;;;;;;;;;;;;;;-1.85;91.25;101436.17;1883246;75;20431;-41
2020/12/13 04:45:07;;;;;;;;;;;;;;;-1.86;91.29;101433.53;1869582;77;20237;-41
2020/12/13 04:47:50;;;;;;;;;;;;;;;-1.88;91.33;101436.42;1867207;77;20238;-41
2020/12/13 04:50:19;;;;;;;;;;;;;;;-1.89;91.38;101438.11;1840470;77;20154;-41
2020/12/13 04:52:49;;;;;;;;;;;;;;;-1.89;91.47;101428.23;1867257;77;20123;-43
2020/12/13 04:55:16;;;;;;;;;;;;;;;-1.90;91.57;101435.50;1868521;75;20225;-41
2020/12/13 04:57:45;;;;;;;;;;;;;;;-1.90;91.63;101438.06;1859037;75;20532;-39
2020/12/13 05:00:13;;;;;;;;;;;;;;;-1.91;91.66;101442.73;1891263;75;20420;-40
2020/12/13 05:02:40;;;;;;;;;;;;;;;-1.94;91.67;101437.03;1874388;75;20154;-40
2020/12/13 05:05:10;;;;;;;;;;;;;;;-1.97;91.69;101436.03;1867322;75;20187;-42
2020/12/13 05:07:37;;;;;;;;;;;;;;;-2.02;91.72;101432.82;1867077;75;20185;-37
2020/12/13 05:10:05;;;;;;;;;;;;;;;-2.03;91.78;101431.46;1874491;75;20131;-40
2020/12/13 05:12:34;;;;;;;;;;;;;;;-2.05;91.88;101437.84;1867042;77;20184;-39
2020/12/13 05:15:03;;;;;;;;;;;;;;;-2.06;91.93;101442.90;1874158;76;20694;-40
2020/12/13 05:17:33;;;;;;;;;;;;;;;-2.08;91.96;101446.67;1866876;77;20498;-41
2020/12/13 05:20:00;;;;;;;;;;;;;;;-2.09;91.99;101449.16;1880754;75;20144;-40
2020/12/13 05:22:31;;;;;;;;;;;;;;;-2.11;92.04;101448.23;1902389;75;20131;-38
2020/12/13 05:24:59;;;;;;;;;;;;;;;-2.12;92.11;101457.63;1887616;75;20284;-37
2020/12/13 05:27:27;;;;;;;;;;;;;;;-2.13;92.17;101457.15;1861932;77;20165;-41
2020/12/13 05:29:56;;;;;;;;;;;;;;;-2.14;92.20;101458.36;1862187;77;20123;-36
2020/12/13 05:32:25;;;;;;;;;;;;;;;-2.16;92.25;101449.69;1833257;77;20467;-40
2020/12/13 05:34:53;;;;;;;;;;;;;;;-2.18;92.32;101459.03;1867122;77;20447;-41
2020/12/13 05:37:22;;;;;;;;;;;;;;;-2.20;92.34;101456.39;1867577;77;20471;-39
2020/12/13 05:39:52;;;;;;;;;;;;;;;-2.21;92.38;101457.59;1870866;77;20150;-39
2020/12/13 05:42:34;;;;;;;;;;;;;;;-2.21;92.48;101453.74;1866756;77;20371;-40
2020/12/13 05:50:25;;;;;;;;;;;;;;;-2.24;92.74;101435.64;1866612;77;20174;-39
2020/12/13 05:52:34;;;;;;;;;;;;;;;-2.25;92.81;101445.03;1862648;77;20134;-38
2020/12/13 05:55:01;;;;;;;;;;;;;;;-2.25;92.93;101464.28;1867235;77;20201;-38
2020/12/13 05:57:29;;;;;;;;;;;;;;;-2.26;93.03;101459.08;1848811;77;20177;-39
2020/12/13 05:59:57;;;;;;;;;;;;;;;-2.26;93.08;101462.52;1866635;77;20162;-38
2020/12/13 06:02:25;;;;;;;;;;;;;;;-2.27;93.16;101467.17;1867118;75;20424;-37
2020/12/13 06:04:55;;;;;;;;;;;;;;;-2.27;93.22;101473.59;1866789;77;20140;-38
2020/12/13 06:07:24;;;;;;;;;;;;;;;-2.26;93.28;101478.33;1877639;75;20382;-39
2020/12/13 06:09:54;;;;;;;;;;;;;;;-2.27;93.33;101459.47;1839614;77;20201;-40
2020/12/13 06:12:21;;;;;;;;;;;;;;;-2.29;93.34;101471.75;1880504;75;20275;-40
2020/12/13 06:14:49;;;;;;;;;;;;;;;-2.30;93.44;101477.33;1853681;76;20134;-39
2020/12/13 06:17:16;;;;;;;;;;;;;;;-2.31;93.51;101476.84;1878406;75;20187;-36
2020/12/13 06:19:45;;;;;;;;;;;;;;;-2.31;93.58;101467.86;1871379;75;20166;-40
2020/12/13 06:22:13;;;;;;;;;;;;;;;-2.33;93.67;101463.05;1888944;75;20309;-40
2020/12/13 06:26:52;;;;;;;;;;;;;;;-2.31;93.80;101467.86;1917161;74;20122;-38
2020/12/13 06:29:20;;;;;;;;;;;;;;;-2.38;93.86;101462.35;1860318;75;20156;-37
2020/12/13 06:31:49;;;;;;;;;;;;;;;-2.40;93.99;101476.39;1868236;75;20201;-39
2020/12/13 06:34:17;;;;;;;;;;;;;;;-2.42;94.13;101463.87;1870435;75;20180;-40
2020/12/13 06:36:44;;;;;;;;;;;;;;;-2.44;94.28;101461.66;1869977;75;20206;-38
2020/12/13 06:39:15;;;;;;;;;;;;;;;-2.44;94.42;101448.42;1902358;75;20417;-38
2020/12/13 06:41:45;;;;;;;;;;;;;;;-2.45;94.56;101453.48;1902293;75;20306;-38
2020/12/13 06:44:13;;;;;;;;;;;;;;;-2.45;94.70;101450.52;1873642;75;20794;-38
2020/12/13 06:46:43;;;;;;;;;;;;;;;-2.45;94.81;101453.48;1892296;75;20274;-41
2020/12/13 06:49:13;;;;;;;;;;;;;;;-2.44;94.95;101457.41;1874194;75;20142;-36
2020/12/13 06:51:41;;;;;;;;;;;;;;;-2.41;95.04;101439.97;1867249;77;20182;-42
2020/12/13 06:54:11;;;;;;;;;;;;;;;-2.42;95.10;101463.87;1867129;75;20218;-39
2020/12/13 06:56:39;;;;;;;;;;;;;;;-2.42;95.20;101466.04;1867165;77;20406;-38
2020/12/13 06:59:08;;;;;;;;;;;;;;;-2.42;95.27;101460.91;1867791;75;20199;-42
2020/12/13 07:01:41;;;;;;;;;;;;;;;-2.42;95.38;101476.31;1870268;75;20155;-41
2020/12/13 07:04:38;;;;;;;;;;;;;;;-2.41;95.48;101472.06;1867366;76;20196;-46
2020/12/13 07:07:08;;;;;;;;;;;;;;;-2.39;95.54;101460.59;1869772;77;20216;-41
2020/12/13 07:09:34;;;;;;;;;;;;;;;-2.40;95.57;101472.54;1870782;75;20220;-41
2020/12/13 07:12:03;;;;;;;;;;;;;;;-2.39;95.66;101476.88;1869106;75;20185;-38
2020/12/13 07:14:33;;;;;;;;;;;;;;;-2.38;95.68;101481.20;1871929;75;20370;-40
2020/12/13 07:17:10;;;;;;;;;;;;;;;-2.36;95.69;101485.98;1876096;75;20186;-41
2020/12/13 07:19:40;;;;;;;;;;;;;;;-2.36;95.67;101474.88;1881828;75;20234;-43
2020/12/13 07:22:11;;;;;;;;;;;;;;;-2.38;95.65;101473.50;1867372;75;20157;-42
2020/12/13 07:24:42;;;;;;;;;;;;;;;-2.38;95.67;101477.76;1875814;75;20148;-38
2020/12/13 07:27:10;;;;;;;;;;;;;;;-2.38;95.74;101479.92;1880098;75;20158;-41
2020/12/13 07:29:38;;;;;;;;;;;;;;;-2.38;95.76;101475.19;1882309;75;20160;-37
2020/12/13 07:32:05;;;;;;;;;;;;;;;-2.37;95.79;101485.94;1873552;75;20192;-42
2020/12/13 07:34:34;;;;;;;;;;;;;;;-2.37;95.81;101473.11;1872425;75;20208;-40
2020/12/13 07:37:02;;;;;;;;;;;;;;;-2.38;95.83;101476.47;1872834;75;20202;-37
2020/12/13 07:39:30;;;;;;;;;;;;;;;-2.40;95.88;101475.11;1877761;75;20448;-41
2020/12/13 07:41:57;;;;;;;;;;;;;;;-2.39;95.95;101478.56;1883489;75;20152;-41
2020/12/13 07:44:32;;;;;;;;;;;;;;;-2.37;96.06;101470.53;1898900;75;20267;-37
2020/12/13 07:47:00;;;;;;;;;;;;;;;-2.34;96.10;101466.41;1872183;75;20159;-40
2020/12/13 07:49:28;;;;;;;;;;;;;;;-2.33;96.15;101454.45;1865969;77;20131;-40
2020/12/13 07:51:58;;;;;;;;;;;;;;;-2.32;96.13;101454.53;1872699;75;20177;-43
2020/12/13 07:54:32;;;;;;;;;;;;;;;-2.32;96.16;101471.63;1871577;75;20305;-41
2020/12/13 07:57:15;;;;;;;;;;;;;;;-2.30;96.20;101468.34;1878535;75;20277;-40
2020/12/13 07:59:40;;;;;;;;;;;;;;;-2.29;96.21;101466.22;1878160;75;20176;-40
2020/12/13 08:02:12;;;;;;;;;;;;;;;-2.29;96.19;101459.80;1867679;75;20222;-41
2020/12/13 08:04:41;;;;;;;;;;;;;;;-2.30;96.18;101454.21;1866443;75;20455;-43
2020/12/13 08:07:13;;;;;;;;;;;;;;;-2.28;96.26;101458.99;1866251;75;20836;-41
2020/12/13 08:09:44;;;;;;;;;;;;;;;-2.25;96.31;101440.30;1871058;75;20174;-43
2020/12/13 08:12:12;;;;;;;;;;;;;;;-2.23;96.29;101438.25;1807859;78;20187;-39
2020/12/13 08:14:40;;;;;;;;;;;;;;;-2.21;96.25;101439.21;1817872;78;20184;-41
2020/12/13 08:17:09;;;;;;;;;;;;;;;-2.18;96.27;101441.05;1826217;78;20168;-40
2020/12/13 08:19:42;;;;;;;;;;;;;;;-2.14;96.25;101431.39;1790356;77;20543;-39
2020/12/13 08:22:24;;;;;;;;;;;;;;;-2.18;96.14;101447.48;1787379;78;20467;-43
2020/12/13 08:24:55;;;;;;;;;;;;;;;-2.20;96.11;101432.39;1763348;78;20466;-39
2020/12/13 08:27:24;;;;;;;;;;;;;;;-2.20;96.10;101435.84;1796450;77;20190;-42
2020/12/13 08:29:53;;;;;;;;;;;;;;;-2.22;96.09;101432.31;1825922;77;20505;-40
2020/12/13 08:32:23;;;;;;;;;;;;;;;-2.26;96.02;101423.13;1829312;77;20204;-43
2020/12/13 08:34:51;;;;;;;;;;;;;;;-2.30;96.06;101433.67;1826423;77;20189;-41
2020/12/13 08:37:23;;;;;;;;;;;;;;;-2.29;96.10;101438.37;1837660;77;20265;-41
2020/12/13 08:39:50;;;;;;;;;;;;;;;-2.27;96.14;101431.62;1830742;77;20174;-42
2020/12/13 08:42:22;;;;;;;;;;;;;;;-2.27;96.08;101421.36;1830355;77;20137;-40
2020/12/13 08:44:49;;;;;;;;;;;;;;;-2.26;96.05;101411.16;1837777;77;20137;-40
2020/12/13 08:47:18;;;;;;;;;;;;;;;-2.26;96.04;101417.58;1833088;77;20180;-41
2020/12/13 08:49:50;;;;;;;;;;;;;;;-2.29;95.94;101405.88;1797170;79;20206;-43
2020/12/13 08:52:19;;;;;;;;;;;;;;;-2.31;95.88;101419.06;1830444;77;20188;-39
2020/12/13 08:54:51;;;;;;;;;;;;;;;-2.32;95.88;101410.00;1803139;78;20194;-38
2020/12/13 08:57:35;;;;;;;;;;;;;;;-2.30;95.86;101400.69;1800024;78;20199;-43
2020/12/13 09:00:09;;;;;;;;;;;;;;;-2.29;95.81;101400.73;1810388;77;20324;-42
2020/12/13 09:02:38;;;;;;;;;;;;;;;-2.30;95.76;101388.73;1839656;77;20472;-42
2020/12/13 09:05:07;;;;;;;;;;;;;;;-2.29;95.68;101405.88;1818243;78;20447;-43
2020/12/13 09:07:35;;;;;;;;;;;;;;;-2.27;95.66;101401.70;1818491;78;20170;-42
2020/12/13 09:10:14;;;;;;;;;;;;;;;-2.24;95.61;101399.69;1821291;78;20198;-40
2020/12/13 09:12:41;;;;;;;;;;;;;;;-2.22;95.50;101399.33;1814613;78;20525;-38
2020/12/13 09:15:17;;;;;;;;;;;;;;;-2.20;95.36;101397.31;1813160;78;20230;-41
2020/12/13 09:17:58;;;;;;;;;;;;;;;-2.20;95.15;101400.28;1812901;78;20124;-41
2020/12/13 09:20:29;;;;;;;;;;;;;;;-2.18;95.05;101396.11;1813308;78;20172;-41
2020/12/13 09:23:03;;;;;;;;;;;;;;;-2.15;94.95;101398.39;1804083;79;20190;-42
2020/12/13 09:25:40;;;;;;;;;;;;;;;-2.06;94.90;101367.12;1808697;78;20281;-46
2020/12/13 09:28:07;;;;;;;;;;;;;;;-2.03;94.63;101386.50;1809510;78;20141;-42
2020/12/13 09:30:35;;;;;;;;;;;;;;;-2.00;94.38;101390.52;1835988;78;20235;-41
2020/12/13 09:33:04;;;;;;;;;;;;;;;-1.99;94.27;101385.85;1811431;78;20230;-40
2020/12/13 09:35:32;;;;;;;;;;;;;;;-1.96;94.05;101372.24;1808542;79;20468;-39
2020/12/13 09:38:03;;;;;;;;;;;;;;;-1.99;93.79;101387.54;1813480;78;20269;-48
2020/12/13 09:40:32;;;;;;;;;;;;;;;-1.99;93.75;101383.28;1814042;78;20307;-42
2020/12/13 09:43:00;;;;;;;;;;;;;;;-1.98;93.58;101381.59;1812762;78;20474;-42
2020/12/13 09:45:28;;;;;;;;;;;;;;;-2.02;93.38;101377.59;1817779;78;20189;-41
2020/12/13 09:47:58;;;;;;;;;;;;;;;-2.07;93.24;101386.79;1813441;78;20176;-43
2020/12/13 09:50:27;;;;;;;;;;;;;;;-2.10;93.24;101378.93;1823886;78;20457;-42
2020/12/13 09:52:55;;;;;;;;;;;;;;;-2.09;93.22;101375.55;1817254;78;20459;-38
2020/12/13 09:55:24;;;;;;;;;;;;;;;-2.13;93.12;101370.22;1812264;78;20146;-40
2020/12/13 09:57:53;;;;;;;;;;;;;;;-2.18;93.03;101370.02;1815376;78;20132;-40
2020/12/13 10:00:21;;;;;;;;;;;;;;;-2.21;93.02;101363.86;1821226;78;20194;-41
2020/12/13 10:02:52;;;;;;;;;;;;;;;-2.22;93.01;101367.22;1812504;78;20182;-40
2020/12/13 10:05:29;;;;;;;;;;;;;;;-2.23;93.02;101343.23;1815598;78;20413;-41
2020/12/13 10:09:00;;;;;;;;;;;;;;;-2.25;92.93;101347.44;1810768;78;20455;-39
2020/12/13 10:10:23;;;;;;;;;;;;;;;-2.25;92.94;101353.86;1812979;78;20221;-40
2020/12/13 10:12:51;;;;;;;;;;;;;;;-2.24;92.89;101345.35;1814601;78;20187;-41
2020/12/13 10:15:19;;;;;;;;;;;;;;;-2.24;92.86;101353.06;1814884;78;20174;-42
2020/12/13 10:17:49;;;;;;;;;;;;;;;-2.23;92.88;101347.08;1812411;78;20588;-41
2020/12/13 10:20:19;;;;;;;;;;;;;;;-2.21;92.89;101349.73;1816693;78;20202;-41
2020/12/13 10:22:51;;;;;;;;;;;;;;;-2.20;92.85;101352.78;1812046;78;20184;-40
2020/12/13 10:26:50;;;;;;;;;;;;;;;-2.16;92.86;101340.12;1857661;75;20171;-38
2020/12/13 10:29:19;;;;;;;;;;;;;;;-2.21;92.76;101339.05;1826687;77;20159;-41
2020/12/13 10:31:46;;;;;;;;;;;;;;;-2.21;92.77;101335.60;1831966;77;20279;-38
2020/12/13 10:34:16;;;;;;;;;;;;;;;-2.21;92.72;101334.32;1811712;77;20537;-40
2020/12/13 10:36:44;;;;;;;;;;;;;;;-2.25;92.62;101325.61;1836094;77;20235;-38
2020/12/13 10:39:22;;;;;;;;;;;;;;;-2.28;92.65;101336.14;1791372;77;20217;-43
2020/12/13 10:41:52;;;;;;;;;;;;;;;-2.29;92.63;101338.23;1787363;78;20661;-42
2020/12/13 10:44:22;;;;;;;;;;;;;;;-2.30;92.64;101329.67;1803240;78;20197;-39
2020/12/13 10:46:49;;;;;;;;;;;;;;;-2.30;92.67;101327.51;1815358;78;20177;-41
2020/12/13 10:49:24;;;;;;;;;;;;;;;-2.31;92.69;101313.78;1815234;78;20288;-39
2020/12/13 10:51:55;;;;;;;;;;;;;;;-2.30;92.73;101327.11;1823816;78;20666;-39
2020/12/13 10:54:24;;;;;;;;;;;;;;;-2.29;92.74;101324.98;1786180;78;20236;-41
2020/12/13 10:56:53;;;;;;;;;;;;;;;-2.25;92.76;101325.61;1818297;77;20321;-40
2020/12/13 10:59:20;;;;;;;;;;;;;;;-2.23;92.71;101321.84;1816215;77;20379;-41
2020/12/13 11:01:48;;;;;;;;;;;;;;;-2.22;92.70;101314.17;1817645;78;20326;-38
2020/12/13 11:04:19;;;;;;;;;;;;;;;-2.19;92.64;101324.59;1815740;78;20192;-42
2020/12/13 11:06:47;;;;;;;;;;;;;;;-2.17;92.61;101320.42;1815438;78;20181;-40
2020/12/13 11:09:17;;;;;;;;;;;;;;;-2.15;92.52;101323.03;1812579;78;20188;-42
2020/12/13 11:11:45;;;;;;;;;;;;;;;-2.15;92.49;101320.06;1817109;78;20160;-39
2020/12/13 11:14:14;;;;;;;;;;;;;;;-2.15;92.37;101307.22;1805723;79;20216;-41
2020/12/13 11:16:48;;;;;;;;;;;;;;;-2.15;92.30;101314.04;1815192;78;20181;-41
2020/12/13 11:19:15;;;;;;;;;;;;;;;-2.16;92.26;101304.17;1817668;78;20196;-40
2020/12/13 11:21:45;;;;;;;;;;;;;;;-2.15;92.20;101318.77;1819864;77;20300;-38
2020/12/13 11:24:13;;;;;;;;;;;;;;;-2.14;92.24;101316.69;1815837;78;20173;-38
2020/12/13 11:26:42;;;;;;;;;;;;;;;-2.15;92.16;101316.20;1819810;78;20175;-37
2020/12/13 11:29:09;;;;;;;;;;;;;;;-2.17;92.15;101317.86;1800576;78;20185;-36
2020/12/13 11:31:37;;;;;;;;;;;;;;;-2.18;92.13;101315.21;1817620;78;20282;-40
2020/12/13 11:34:07;;;;;;;;;;;;;;;-2.21;92.10;101317.22;1818427;78;20478;-40
2020/12/13 11:36:36;;;;;;;;;;;;;;;-2.23;92.11;101325.25;1733679;78;20309;-41
2020/12/13 11:39:17;;;;;;;;;;;;;;;-2.23;92.15;101330.83;1707443;79;20179;-39
2020/12/13 11:42:23;;;;;;;;;;;;;;;-2.22;92.17;101333.44;1739342;79;20295;-40
2020/12/13 11:44:52;;;;;;;;;;;;;;;-2.21;92.19;101339.45;1755924;79;20200;-38
2020/12/13 11:47:19;;;;;;;;;;;;;;;-2.23;92.17;101344.52;1778353;79;20258;-39
2020/12/13 11:49:47;;;;;;;;;;;;;;;-2.24;92.19;101347.92;1776033;79;20462;-39
2020/12/13 11:52:15;;;;;;;;;;;;;;;-2.22;92.23;101345.40;1777596;79;20211;-38
2020/12/13 11:54:44;;;;;;;;;;;;;;;-2.23;92.26;101333.39;1777360;79;20150;-37
2020/12/13 11:57:12;;;;;;;;;;;;;;;-2.25;92.24;101328.59;1777879;79;20265;-37
2020/12/13 11:59:41;;;;;;;;;;;;;;;-2.26;92.33;101335.81;1780815;79;20450;-40
2020/12/13 12:02:09;;;;;;;;;;;;;;;-2.26;92.37;101339.26;1779016;79;20168;-39
2020/12/13 12:04:39;;;;;;;;;;;;;;;-2.24;92.44;101342.78;1777748;78;20199;-40
2020/12/13 12:07:07;;;;;;;;;;;;;;;-2.24;92.47;101344.07;1742719;80;20218;-39
2020/12/13 12:09:35;;;;;;;;;;;;;;;-2.22;92.54;101337.70;1758065;80;20276;-40
2020/12/13 12:12:04;;;;;;;;;;;;;;;-2.20;92.51;101350.20;1758762;80;20211;-41
2020/12/13 12:14:31;;;;;;;;;;;;;;;-2.20;92.48;101355.34;1759291;79;20310;-38
2020/12/13 12:17:01;;;;;;;;;;;;;;;-2.22;92.46;101346.68;1788052;77;20173;-38
2020/12/13 12:19:32;;;;;;;;;;;;;;;-2.24;92.45;101349.20;1790608;77;20417;-39
2020/12/13 12:22:01;;;;;;;;;;;;;;;-2.22;92.47;101337.70;1711830;81;20171;-36
2020/12/13 12:24:29;;;;;;;;;;;;;;;-2.25;92.46;101343.59;1744294;81;20832;-38
2020/12/13 12:27:01;;;;;;;;;;;;;;;-2.25;92.52;101341.42;1767331;79;20189;-39
2020/12/13 12:29:41;;;;;;;;;;;;;;;-2.28;92.47;101347.29;1723563;81;20184;-39
2020/12/13 12:32:13;;;;;;;;;;;;;;;-2.27;92.51;101346.48;1747392;81;20191;-40
2020/12/13 12:34:43;;;;;;;;;;;;;;;-2.26;92.52;101352.50;1747927;81;20228;-38
2020/12/13 12:37:21;;;;;;;;;;;;;;;-2.29;92.53;101351.95;1733423;80;20493;-38
2020/12/13 12:39:52;;;;;;;;;;;;;;;-2.30;92.50;101357.03;1739255;79;20171;-39
2020/12/13 12:42:20;;;;;;;;;;;;;;;-2.31;92.55;101361.29;1760767;79;20283;-37
2020/12/13 12:44:48;;;;;;;;;;;;;;;-2.32;92.60;101336.82;1737876;80;20462;-37
2020/12/13 12:47:16;;;;;;;;;;;;;;;-2.34;92.62;101340.59;1758405;80;20292;-38
2020/12/13 12:49:44;;;;;;;;;;;;;;;-2.34;92.64;101349.98;1792334;79;20183;-39
2020/12/13 12:52:13;;;;;;;;;;;;;;;-2.33;92.70;101355.59;1792100;79;20125;-37
2020/12/13 12:54:44;;;;;;;;;;;;;;;-2.33;92.75;101355.20;1788580;79;20194;-39
2020/12/13 12:57:12;;;;;;;;;;;;;;;-2.31;92.80;101342.44;1788240;77;20187;-38
2020/12/13 12:59:59;;;;;;;;;;;;;;;-2.32;92.76;101342.84;1789114;77;20266;-40
2020/12/13 13:02:09;;;;;;;;;;;;;;;-2.34;92.76;101348.30;1783432;77;20133;-37